sensor_id;sensor_type;location;lat;lon;timestamp;pressure;altitude;pressure_sealevel;temperature;humidity
4858;BME280;58975;51.978;8.472;2022-08-03T00:04:21;100281.53;;;17.30;100.00
4858;BME280;58975;51.978;8.472;2022-08-03T00:09:29;100282.56;;;17.29;100.00
4858;BME280;58975;51.978;8.472;2022-08-03T00:14:31;100279.53;;;17.16;100.00
4858;BME280;58975;51.978;8.472;2022-08-03T00:19:27;100279.53;;;17.16;100.00
4858;BME280;58975;51.978;8.472;2022-08-03T00:24:23;100274.81;;;17.10;100.00
4858;BME280;58975;51.978;8.472;2022-08-03T00:29:20;100277.34;;;17.12;100.00
4858;BME280;58975;51.978;8.472;2022-08-03T00:34:16;100272.97;;;17.19;100.00
4858;BME280;58975;51.978;8.472;2022-08-03T00:39:28;100268.94;;;17.07;100.00
4858;BME280;58975;51.978;8.472;2022-08-03T00:44:25;100267.09;;;17.15;100.00
4858;BME280;58975;51.978;8.472;2022-08-03T00:49:21;100254.13;;;17.19;100.00
4858;BME280;58975;51.978;8.472;2022-08-03T00:54:18;100261.38;;;17.18;100.00
4858;BME280;58975;51.978;8.472;2022-08-03T00:59:15;100263.06;;;17.19;100.00
4858;BME280;58975;51.978;8.472;2022-08-03T01:04:11;100251.78;;;17.16;100.00
4858;BME280;58975;51.978;8.472;2022-08-03T01:09:46;100251.44;;;17.19;100.00
4858;BME280;58975;51.978;8.472;2022-08-03T01:15:04;100253.28;;;17.18;100.00
4858;BME280;58975;51.978;8.472;2022-08-03T01:20:10;100259.38;;;17.04;100.00
4858;BME280;58975;51.978;8.472;2022-08-03T01:30:36;100256.19;;;17.00;100.00
4858;BME280;58975;51.978;8.472;2022-08-03T01:35:34;100247.59;;;16.97;100.00
4858;BME280;58975;51.978;8.472;2022-08-03T01:40:35;100259.19;;;16.81;100.00
4858;BME280;58975;51.978;8.472;2022-08-03T01:45:34;100253.31;;;16.78;100.00
4858;BME280;58975;51.978;8.472;2022-08-03T01:50:33;100250.09;;;16.82;100.00
4858;BME280;58975;51.978;8.472;2022-08-03T01:55:31;100244.22;;;16.79;100.00
4858;BME280;58975;51.978;8.472;2022-08-03T02:00:30;100247.56;;;16.65;100.00
4858;BME280;58975;51.978;8.472;2022-08-03T02:05:30;100238.50;;;16.66;100.00
4858;BME280;58975;51.978;8.472;2022-08-03T02:10:27;100240.00;;;16.60;100.00
4858;BME280;58975;51.978;8.472;2022-08-03T02:15:32;100252.59;;;16.60;100.00
4858;BME280;58975;51.978;8.472;2022-08-03T02:20:29;100250.59;;;16.62;100.00
4858;BME280;58975;51.978;8.472;2022-08-03T02:25:29;100241.44;;;16.54;100.00
4858;BME280;58975;51.978;8.472;2022-08-03T02:30:30;100244.66;;;16.50;100.00
4858;BME280;58975;51.978;8.472;2022-08-03T02:35:29;100242.47;;;16.45;100.00
4858;BME280;58975;51.978;8.472;2022-08-03T02:40:29;100239.06;;;16.35;100.00
4858;BME280;58975;51.978;8.472;2022-08-03T02:45:27;100238.06;;;16.36;100.00
4858;BME280;58975;51.978;8.472;2022-08-03T02:50:25;100241.94;;;16.34;100.00
4858;BME280;58975;51.978;8.472;2022-08-03T02:55:25;100241.56;;;16.29;100.00
4858;BME280;58975;51.978;8.472;2022-08-03T03:00:22;100243.72;;;16.17;100.00
4858;BME280;58975;51.978;8.472;2022-08-03T03:05:24;100240.38;;;16.15;100.00
4858;BME280;58975;51.978;8.472;2022-08-03T03:10:41;100244.06;;;16.14;100.00
4858;BME280;58975;51.978;8.472;2022-08-03T03:15:38;100240.81;;;16.02;100.00
4858;BME280;58975;51.978;8.472;2022-08-03T03:20:37;100243.31;;;15.96;100.00
4858;BME280;58975;51.978;8.472;2022-08-03T03:25:34;100246.84;;;15.96;100.00
4858;BME280;58975;51.978;8.472;2022-08-03T03:30:32;100250.63;;;15.78;100.00
4858;BME280;58975;51.978;8.472;2022-08-03T03:35:28;100266.09;;;15.84;100.00
4858;BME280;58975;51.978;8.472;2022-08-03T03:40:25;100262.25;;;15.86;100.00
4858;BME280;58975;51.978;8.472;2022-08-03T03:45:23;100261.91;;;15.89;100.00
4858;BME280;58975;51.978;8.472;2022-08-03T03:50:19;100265.47;;;15.98;100.00
4858;BME280;58975;51.978;8.472;2022-08-03T03:55:17;100253.03;;;15.97;100.00
4858;BME280;58975;51.978;8.472;2022-08-03T04:00:15;100263.41;;;15.84;100.00
4858;BME280;58975;51.978;8.472;2022-08-03T04:05:13;100251.16;;;15.89;100.00
4858;BME280;58975;51.978;8.472;2022-08-03T04:10:30;100262.25;;;15.86;100.00
4858;BME280;58975;51.978;8.472;2022-08-03T04:15:48;100271.28;;;15.85;100.00
4858;BME280;58975;51.978;8.472;2022-08-03T04:20:47;100260.91;;;15.90;100.00
4858;BME280;58975;51.978;8.472;2022-08-03T04:25:45;100261.94;;;15.97;100.00
4858;BME280;58975;51.978;8.472;2022-08-03T04:30:46;100264.81;;;16.04;100.00
4858;BME280;58975;51.978;8.472;2022-08-03T04:35:45;100264.72;;;16.14;100.00
4858;BME280;58975;51.978;8.472;2022-08-03T04:40:58;100266.56;;;16.21;100.00
4858;BME280;58975;51.978;8.472;2022-08-03T04:45:55;100270.47;;;16.27;100.00
4858;BME280;58975;51.978;8.472;2022-08-03T04:50:52;100272.03;;;16.45;100.00
4858;BME280;58975;51.978;8.472;2022-08-03T04:55:49;100260.00;;;16.66;100.00
4858;BME280;58975;51.978;8.472;2022-08-03T05:00:45;100254.97;;;16.71;100.00
4858;BME280;58975;51.978;8.472;2022-08-03T05:05:46;100250.59;;;16.86;100.00
4858;BME280;58975;51.978;8.472;2022-08-03T05:10:46;100242.38;;;17.03;100.00
4858;BME280;58975;51.978;8.472;2022-08-03T05:15:42;100248.06;;;17.33;100.00
4858;BME280;58975;51.978;8.472;2022-08-03T05:20:38;100246.53;;;17.55;100.00
4858;BME280;58975;51.978;8.472;2022-08-03T05:25:35;100246.75;;;17.92;100.00
4858;BME280;58975;51.978;8.472;2022-08-03T05:30:31;100251.00;;;18.25;100.00
4858;BME280;58975;51.978;8.472;2022-08-03T05:35:30;100245.66;;;18.48;100.00
4858;BME280;58975;51.978;8.472;2022-08-03T05:40:47;100257.16;;;18.73;100.00
4858;BME280;58975;51.978;8.472;2022-08-03T05:45:52;100261.06;;;18.93;100.00
4858;BME280;58975;51.978;8.472;2022-08-03T05:51:09;100261.38;;;19.35;100.00
4858;BME280;58975;51.978;8.472;2022-08-03T05:56:07;100262.94;;;19.82;100.00
4858;BME280;58975;51.978;8.472;2022-08-03T06:01:10;100276.88;;;20.44;100.00
4858;BME280;58975;51.978;8.472;2022-08-03T06:06:07;100290.22;;;20.82;100.00
4858;BME280;58975;51.978;8.472;2022-08-03T06:11:03;100297.75;;;21.07;100.00
4858;BME280;58975;51.978;8.472;2022-08-03T06:16:00;100285.41;;;21.19;100.00
4858;BME280;58975;51.978;8.472;2022-08-03T06:20:56;100295.19;;;21.42;100.00
4858;BME280;58975;51.978;8.472;2022-08-03T06:26:09;100305.69;;;21.51;100.00
4858;BME280;58975;51.978;8.472;2022-08-03T06:31:08;100305.69;;;21.79;100.00
4858;BME280;58975;51.978;8.472;2022-08-03T06:36:04;100299.81;;;22.44;100.00
4858;BME280;58975;51.978;8.472;2022-08-03T06:41:01;100312.34;;;22.99;100.00
4858;BME280;58975;51.978;8.472;2022-08-03T06:45:57;100314.91;;;23.21;100.00
4858;BME280;58975;51.978;8.472;2022-08-03T06:50:54;100318.22;;;23.23;100.00
4858;BME280;58975;51.978;8.472;2022-08-03T06:55:50;100313.81;;;23.22;100.00
4858;BME280;58975;51.978;8.472;2022-08-03T07:00:50;100308.41;;;23.35;100.00
4858;BME280;58975;51.978;8.472;2022-08-03T07:05:46;100309.47;;;23.73;100.00
4858;BME280;58975;51.978;8.472;2022-08-03T07:10:44;100315.47;;;24.08;100.00
4858;BME280;58975;51.978;8.472;2022-08-03T07:15:40;100311.13;;;24.07;100.00
4858;BME280;58975;51.978;8.472;2022-08-03T07:20:51;100321.47;;;24.49;100.00
4858;BME280;58975;51.978;8.472;2022-08-03T07:25:47;100315.44;;;24.79;100.00
4858;BME280;58975;51.978;8.472;2022-08-03T07:30:44;100326.56;;;24.77;100.00
4858;BME280;58975;51.978;8.472;2022-08-03T07:35:40;100327.69;;;25.39;100.00
4858;BME280;58975;51.978;8.472;2022-08-03T07:40:37;100323.16;;;25.82;100.00
4858;BME280;58975;51.978;8.472;2022-08-03T07:45:38;100333.03;;;26.02;100.00
4858;BME280;58975;51.978;8.472;2022-08-03T07:50:34;100327.78;;;26.00;100.00
4858;BME280;58975;51.978;8.472;2022-08-03T07:55:31;100325.50;;;26.40;100.00
4858;BME280;58975;51.978;8.472;2022-08-03T08:00:27;100321.84;;;26.46;100.00
4858;BME280;58975;51.978;8.472;2022-08-03T08:05:25;100320.75;;;26.84;100.00
4858;BME280;58975;51.978;8.472;2022-08-03T08:10:21;100326.59;;;26.87;100.00
4858;BME280;58975;51.978;8.472;2022-08-03T08:15:18;100327.25;;;27.01;100.00
4858;BME280;58975;51.978;8.472;2022-08-03T08:20:15;100336.38;;;26.76;100.00
4858;BME280;58975;51.978;8.472;2022-08-03T08:25:24;100325.53;;;27.29;100.00
4858;BME280;58975;51.978;8.472;2022-08-03T08:30:22;100325.13;;;27.44;100.00
4858;BME280;58975;51.978;8.472;2022-08-03T08:35:19;100336.56;;;27.64;100.00
4858;BME280;58975;51.978;8.472;2022-08-03T08:40:15;100329.91;;;27.60;100.00
4858;BME280;58975;51.978;8.472;2022-08-03T08:45:11;100320.53;;;28.03;100.00
4858;BME280;58975;51.978;8.472;2022-08-03T08:50:10;100324.69;;;27.70;100.00
4858;BME280;58975;51.978;8.472;2022-08-03T08:55:23;100326.91;;;28.43;100.00
4858;BME280;58975;51.978;8.472;2022-08-03T09:00:20;100326.13;;;28.83;100.00
4858;BME280;58975;51.978;8.472;2022-08-03T09:05:18;100324.56;;;27.89;100.00
4858;BME280;58975;51.978;8.472;2022-08-03T09:10:26;100320.94;;;27.00;100.00
4858;BME280;58975;51.978;8.472;2022-08-03T09:15:24;100320.16;;;27.64;100.00
4858;BME280;58975;51.978;8.472;2022-08-03T09:20:22;100310.66;;;28.02;100.00
4858;BME280;58975;51.978;8.472;2022-08-03T09:25:19;100317.50;;;28.91;100.00
4858;BME280;58975;51.978;8.472;2022-08-03T09:30:21;100312.72;;;28.70;100.00
4858;BME280;58975;51.978;8.472;2022-08-03T09:35:30;100309.69;;;28.83;100.00
4858;BME280;58975;51.978;8.472;2022-08-03T09:40:47;100322.09;;;29.30;100.00
4858;BME280;58975;51.978;8.472;2022-08-03T09:45:45;100321.69;;;28.93;98.57
4858;BME280;58975;51.978;8.472;2022-08-03T09:50:52;100312.81;;;29.31;100.00
4858;BME280;58975;51.978;8.472;2022-08-03T09:56:07;100303.91;;;29.41;100.00
4858;BME280;58975;51.978;8.472;2022-08-03T10:01:31;100311.91;;;29.14;85.46
4858;BME280;58975;51.978;8.472;2022-08-03T10:06:28;100307.88;;;29.33;75.90
4858;BME280;58975;51.978;8.472;2022-08-03T10:11:31;100309.56;;;29.68;74.82
4858;BME280;58975;51.978;8.472;2022-08-03T10:16:37;100305.06;;;29.28;68.30
4858;BME280;58975;51.978;8.472;2022-08-03T10:21:36;100304.56;;;29.31;69.96
4858;BME280;58975;51.978;8.472;2022-08-03T10:26:35;100307.94;;;28.65;73.87
4858;BME280;58975;51.978;8.472;2022-08-03T10:31:38;100299.69;;;29.22;75.32
4858;BME280;58975;51.978;8.472;2022-08-03T10:36:55;100299.81;;;28.98;72.53
4858;BME280;58975;51.978;8.472;2022-08-03T10:41:55;100291.94;;;29.02;68.51
4858;BME280;58975;51.978;8.472;2022-08-03T10:46:55;100295.78;;;29.01;66.42
4858;BME280;58975;51.978;8.472;2022-08-03T10:51:52;100290.66;;;28.64;71.89
4858;BME280;58975;51.978;8.472;2022-08-03T10:56:49;100284.56;;;29.47;67.09
4858;BME280;58975;51.978;8.472;2022-08-03T11:02:18;100286.75;;;29.84;63.57
4858;BME280;58975;51.978;8.472;2022-08-03T11:12:23;100267.97;;;31.01;64.13
4858;BME280;58975;51.978;8.472;2022-08-03T11:17:26;100271.19;;;30.06;63.25
4858;BME280;58975;51.978;8.472;2022-08-03T11:22:23;100269.16;;;28.85;71.50
4858;BME280;58975;51.978;8.472;2022-08-03T11:27:21;100267.31;;;28.90;74.66
4858;BME280;58975;51.978;8.472;2022-08-03T11:37:34;100260.00;;;29.24;62.97
4858;BME280;58975;51.978;8.472;2022-08-03T11:47:30;100252.41;;;30.41;67.77
4858;BME280;58975;51.978;8.472;2022-08-03T11:52:26;100265.13;;;30.26;61.10
4858;BME280;58975;51.978;8.472;2022-08-03T11:57:30;100267.97;;;29.76;59.14
4858;BME280;58975;51.978;8.472;2022-08-03T12:02:58;100280.03;;;29.75;58.05
4858;BME280;58975;51.978;8.472;2022-08-03T12:07:55;100272.13;;;29.95;58.82
4858;BME280;58975;51.978;8.472;2022-08-03T12:13:02;100266.97;;;30.20;61.01
4858;BME280;58975;51.978;8.472;2022-08-03T12:18:22;100250.91;;;30.77;52.92
4858;BME280;58975;51.978;8.472;2022-08-03T12:23:19;100261.75;;;30.19;53.80
4858;BME280;58975;51.978;8.472;2022-08-03T12:28:18;100254.88;;;29.99;53.30
4858;BME280;58975;51.978;8.472;2022-08-03T12:34:26;100250.81;;;30.24;58.08
4858;BME280;58975;51.978;8.472;2022-08-03T12:39:15;100245.56;;;31.19;54.46
4858;BME280;58975;51.978;8.472;2022-08-03T12:44:13;100249.72;;;30.95;51.78
4858;BME280;58975;51.978;8.472;2022-08-03T12:49:12;100246.44;;;30.44;52.37
4858;BME280;58975;51.978;8.472;2022-08-03T12:54:18;100244.78;;;30.97;55.77
4858;BME280;58975;51.978;8.472;2022-08-03T12:59:24;100240.97;;;31.62;54.32
4858;BME280;58975;51.978;8.472;2022-08-03T13:04:32;100237.97;;;32.15;51.34
4858;BME280;58975;51.978;8.472;2022-08-03T13:09:43;100244.53;;;30.72;51.54
4858;BME280;58975;51.978;8.472;2022-08-03T13:14:41;100230.03;;;30.55;50.25
4858;BME280;58975;51.978;8.472;2022-08-03T13:19:39;100235.69;;;30.43;50.77
4858;BME280;58975;51.978;8.472;2022-08-03T13:24:35;100233.78;;;31.24;52.10
4858;BME280;58975;51.978;8.472;2022-08-03T13:29:32;100224.13;;;30.94;50.60
4858;BME280;58975;51.978;8.472;2022-08-03T13:34:29;100223.06;;;31.27;52.24
4858;BME280;58975;51.978;8.472;2022-08-03T13:39:26;100217.47;;;31.17;50.18
4858;BME280;58975;51.978;8.472;2022-08-03T13:44:28;100218.22;;;31.08;50.14
4858;BME280;58975;51.978;8.472;2022-08-03T13:49:26;100211.84;;;31.02;52.01
4858;BME280;58975;51.978;8.472;2022-08-03T13:54:22;100202.13;;;31.58;48.84
4858;BME280;58975;51.978;8.472;2022-08-03T13:59:22;100207.25;;;31.50;48.59
4858;BME280;58975;51.978;8.472;2022-08-03T14:04:19;100199.53;;;31.10;48.48
4858;BME280;58975;51.978;8.472;2022-08-03T14:09:17;100187.88;;;31.66;46.75
4858;BME280;58975;51.978;8.472;2022-08-03T14:14:14;100186.16;;;32.07;47.49
4858;BME280;58975;51.978;8.472;2022-08-03T14:19:10;100187.53;;;31.58;45.12
4858;BME280;58975;51.978;8.472;2022-08-03T14:24:07;100197.03;;;31.40;47.69
4858;BME280;58975;51.978;8.472;2022-08-03T14:29:03;100197.50;;;31.69;47.77
4858;BME280;58975;51.978;8.472;2022-08-03T14:34:00;100189.84;;;31.81;48.81
4858;BME280;58975;51.978;8.472;2022-08-03T14:38:57;100184.84;;;31.68;46.50
4858;BME280;58975;51.978;8.472;2022-08-03T14:43:56;100184.56;;;32.31;45.83
4858;BME280;58975;51.978;8.472;2022-08-03T14:48:57;100180.03;;;31.95;48.07
4858;BME280;58975;51.978;8.472;2022-08-03T14:54:14;100167.53;;;32.45;47.77
4858;BME280;58975;51.978;8.472;2022-08-03T14:59:13;100169.31;;;31.99;47.73
4858;BME280;58975;51.978;8.472;2022-08-03T15:04:09;100163.50;;;31.95;47.48
4858;BME280;58975;51.978;8.472;2022-08-03T15:09:06;100158.13;;;32.25;46.14
4858;BME280;58975;51.978;8.472;2022-08-03T15:14:18;100166.38;;;32.25;44.29
4858;BME280;58975;51.978;8.472;2022-08-03T15:19:23;100162.50;;;31.59;47.13
4858;BME280;58975;51.978;8.472;2022-08-03T15:24:40;100156.84;;;31.86;45.04
4858;BME280;58975;51.978;8.472;2022-08-03T15:29:37;100158.34;;;30.88;47.35
4858;BME280;58975;51.978;8.472;2022-08-03T15:34:53;100148.69;;;31.12;50.79
4858;BME280;58975;51.978;8.472;2022-08-03T15:39:50;100144.28;;;31.11;47.17
4858;BME280;58975;51.978;8.472;2022-08-03T15:44:55;100145.03;;;31.43;47.94
4858;BME280;58975;51.978;8.472;2022-08-03T15:49:52;100147.78;;;31.43;46.65
4858;BME280;58975;51.978;8.472;2022-08-03T15:54:48;100148.78;;;31.27;47.03
4858;BME280;58975;51.978;8.472;2022-08-03T15:59:44;100145.63;;;31.51;47.40
4858;BME280;58975;51.978;8.472;2022-08-03T16:04:41;100148.22;;;31.25;47.57
4858;BME280;58975;51.978;8.472;2022-08-03T16:09:37;100148.16;;;31.15;50.47
4858;BME280;58975;51.978;8.472;2022-08-03T16:14:38;100142.44;;;31.27;47.00
4858;BME280;58975;51.978;8.472;2022-08-03T16:19:47;100140.50;;;31.22;51.13
4858;BME280;58975;51.978;8.472;2022-08-03T16:24:44;100144.13;;;30.96;50.05
4858;BME280;58975;51.978;8.472;2022-08-03T16:29:41;100148.44;;;31.61;49.07
4858;BME280;58975;51.978;8.472;2022-08-03T16:34:38;100137.50;;;31.29;45.58
4858;BME280;58975;51.978;8.472;2022-08-03T16:39:35;100144.03;;;31.55;47.23
4858;BME280;58975;51.978;8.472;2022-08-03T16:44:31;100137.75;;;31.69;47.78
4858;BME280;58975;51.978;8.472;2022-08-03T16:49:27;100141.13;;;32.79;46.51
4858;BME280;58975;51.978;8.472;2022-08-03T16:54:45;100135.06;;;33.17;42.41
4858;BME280;58975;51.978;8.472;2022-08-03T16:59:48;100127.25;;;36.63;36.60
4858;BME280;58975;51.978;8.472;2022-08-03T17:04:46;100116.00;;;40.70;29.77
4858;BME280;58975;51.978;8.472;2022-08-03T17:09:43;100118.91;;;41.17;28.45
4858;BME280;58975;51.978;8.472;2022-08-03T17:14:41;100127.00;;;40.32;34.25
4858;BME280;58975;51.978;8.472;2022-08-03T17:19:39;100126.84;;;40.63;29.12
4858;BME280;58975;51.978;8.472;2022-08-03T17:24:49;100134.94;;;38.18;33.49
4858;BME280;58975;51.978;8.472;2022-08-03T17:29:48;100122.00;;;39.95;29.63
4858;BME280;58975;51.978;8.472;2022-08-03T17:34:47;100132.28;;;36.93;32.79
4858;BME280;58975;51.978;8.472;2022-08-03T17:39:44;100135.38;;;37.70;33.19
4858;BME280;58975;51.978;8.472;2022-08-03T17:44:54;100129.22;;;39.48;30.40
4858;BME280;58975;51.978;8.472;2022-08-03T17:49:51;100133.38;;;39.67;30.23
4858;BME280;58975;51.978;8.472;2022-08-03T17:55:13;100148.19;;;35.71;34.89
4858;BME280;58975;51.978;8.472;2022-08-03T18:00:30;100147.63;;;37.83;32.86
4858;BME280;58975;51.978;8.472;2022-08-03T18:05:52;100145.13;;;38.58;31.72
4858;BME280;58975;51.978;8.472;2022-08-03T18:11:10;100139.22;;;38.24;32.17
4858;BME280;58975;51.978;8.472;2022-08-03T18:16:11;100150.06;;;38.12;32.37
4858;BME280;58975;51.978;8.472;2022-08-03T18:21:13;100150.19;;;37.79;32.80
4858;BME280;58975;51.978;8.472;2022-08-03T18:26:12;100158.19;;;37.08;35.23
4858;BME280;58975;51.978;8.472;2022-08-03T18:31:10;100155.44;;;36.33;37.67
4858;BME280;58975;51.978;8.472;2022-08-03T18:36:32;100162.25;;;34.44;42.37
4858;BME280;58975;51.978;8.472;2022-08-03T18:41:31;100165.34;;;32.52;50.16
4858;BME280;58975;51.978;8.472;2022-08-03T18:51:45;100147.47;;;29.96;78.23
4858;BME280;58975;51.978;8.472;2022-08-03T18:56:53;100147.28;;;29.26;89.05
4858;BME280;58975;51.978;8.472;2022-08-03T19:01:53;100139.34;;;28.62;100.00
4858;BME280;58975;51.978;8.472;2022-08-03T19:07:07;100142.91;;;27.78;100.00
4858;BME280;58975;51.978;8.472;2022-08-03T19:12:16;100147.94;;;27.11;100.00
4858;BME280;58975;51.978;8.472;2022-08-03T19:17:32;100154.13;;;26.54;100.00
4858;BME280;58975;51.978;8.472;2022-08-03T19:22:31;100154.88;;;26.13;100.00
4858;BME280;58975;51.978;8.472;2022-08-03T19:27:32;100159.94;;;25.79;100.00
4858;BME280;58975;51.978;8.472;2022-08-03T19:32:30;100161.97;;;25.41;100.00
4858;BME280;58975;51.978;8.472;2022-08-03T19:37:28;100160.16;;;25.17;100.00
4858;BME280;58975;51.978;8.472;2022-08-03T19:42:39;100155.69;;;24.98;100.00
4858;BME280;58975;51.978;8.472;2022-08-03T19:47:43;100157.53;;;24.72;100.00
4858;BME280;58975;51.978;8.472;2022-08-03T19:52:41;100158.34;;;24.48;100.00
4858;BME280;58975;51.978;8.472;2022-08-03T19:57:41;100160.19;;;24.23;100.00
4858;BME280;58975;51.978;8.472;2022-08-03T20:02:40;100157.53;;;24.03;100.00
4858;BME280;58975;51.978;8.472;2022-08-03T20:07:39;100154.53;;;23.67;100.00
4858;BME280;58975;51.978;8.472;2022-08-03T20:12:44;100154.56;;;23.53;100.00
4858;BME280;58975;51.978;8.472;2022-08-03T20:17:41;100158.94;;;23.41;100.00
4858;BME280;58975;51.978;8.472;2022-08-03T20:22:54;100138.06;;;23.22;100.00
4858;BME280;58975;51.978;8.472;2022-08-03T20:27:59;100146.47;;;23.07;100.00
4858;BME280;58975;51.978;8.472;2022-08-03T20:33:08;100144.81;;;22.93;100.00
4858;BME280;58975;51.978;8.472;2022-08-03T20:38:05;100147.72;;;22.79;100.00
4858;BME280;58975;51.978;8.472;2022-08-03T20:43:02;100148.50;;;22.59;100.00
4858;BME280;58975;51.978;8.472;2022-08-03T20:48:00;100142.81;;;22.35;100.00
4858;BME280;58975;51.978;8.472;2022-08-03T20:52:56;100139.91;;;22.30;100.00
4858;BME280;58975;51.978;8.472;2022-08-03T20:57:58;100144.88;;;22.20;100.00
4858;BME280;58975;51.978;8.472;2022-08-03T21:02:55;100137.09;;;22.03;100.00
4858;BME280;58975;51.978;8.472;2022-08-03T21:07:56;100139.94;;;21.89;100.00
4858;BME280;58975;51.978;8.472;2022-08-03T21:13:22;100134.50;;;21.82;100.00
4858;BME280;58975;51.978;8.472;2022-08-03T21:18:22;100134.44;;;21.69;100.00
4858;BME280;58975;51.978;8.472;2022-08-03T21:23:19;100129.44;;;21.66;100.00
4858;BME280;58975;51.978;8.472;2022-08-03T21:28:37;100125.25;;;21.63;100.00
4858;BME280;58975;51.978;8.472;2022-08-03T21:33:34;100126.91;;;21.64;100.00
4858;BME280;58975;51.978;8.472;2022-08-03T21:38:30;100118.66;;;21.38;100.00
4858;BME280;58975;51.978;8.472;2022-08-03T21:43:28;100114.59;;;21.21;100.00
4858;BME280;58975;51.978;8.472;2022-08-03T21:48:26;100116.63;;;21.12;100.00
4858;BME280;58975;51.978;8.472;2022-08-03T21:53:24;100111.56;;;21.09;100.00
4858;BME280;58975;51.978;8.472;2022-08-03T21:58:52;100114.44;;;21.01;100.00
4858;BME280;58975;51.978;8.472;2022-08-03T22:03:51;100105.09;;;21.04;100.00
4858;BME280;58975;51.978;8.472;2022-08-03T22:08:50;100112.88;;;21.13;100.00
4858;BME280;58975;51.978;8.472;2022-08-03T22:13:48;100131.91;;;21.61;100.00
4858;BME280;58975;51.978;8.472;2022-08-03T22:18:45;100135.53;;;22.29;100.00
4858;BME280;58975;51.978;8.472;2022-08-03T22:23:48;100141.03;;;22.75;100.00
4858;BME280;58975;51.978;8.472;2022-08-03T22:28:46;100144.38;;;23.03;100.00
4858;BME280;58975;51.978;8.472;2022-08-03T22:33:43;100149.34;;;23.26;100.00
4858;BME280;58975;51.978;8.472;2022-08-03T22:38:40;100158.91;;;23.61;100.00
4858;BME280;58975;51.978;8.472;2022-08-03T22:43:37;100157.66;;;23.70;100.00
4858;BME280;58975;51.978;8.472;2022-08-03T22:48:36;100158.09;;;23.67;100.00
4858;BME280;58975;51.978;8.472;2022-08-03T22:53:37;100162.72;;;23.60;100.00
4858;BME280;58975;51.978;8.472;2022-08-03T22:58:34;100158.13;;;23.54;100.00
4858;BME280;58975;51.978;8.472;2022-08-03T23:03:32;100163.78;;;23.46;100.00
4858;BME280;58975;51.978;8.472;2022-08-03T23:08:51;100158.56;;;23.31;100.00
4858;BME280;58975;51.978;8.472;2022-08-03T23:13:51;100151.47;;;23.24;100.00
4858;BME280;58975;51.978;8.472;2022-08-03T23:18:49;100157.72;;;23.18;100.00
4858;BME280;58975;51.978;8.472;2022-08-03T23:23:47;100154.81;;;23.13;100.00
4858;BME280;58975;51.978;8.472;2022-08-03T23:28:45;100147.50;;;23.06;100.00
4858;BME280;58975;51.978;8.472;2022-08-03T23:33:43;100151.06;;;23.07;100.00
4858;BME280;58975;51.978;8.472;2022-08-03T23:38:40;100145.63;;;23.00;100.00
4858;BME280;58975;51.978;8.472;2022-08-03T23:43:38;100140.59;;;22.97;100.00
4858;BME280;58975;51.978;8.472;2022-08-03T23:48:48;100146.25;;;23.02;100.00
4858;BME280;58975;51.978;8.472;2022-08-03T23:53:50;100137.91;;;22.84;100.00
4858;BME280;58975;51.978;8.472;2022-08-03T23:59:06;100133.53;;;22.77;100.00
